Time;durP1;ratioP1;P1;durP2;ratioP2;P2;SDS_P1;SDS_P2;PMS_P1;PMS_P2;Temp;Humidity;BMP_temperature;BMP_pressure;BME280_temperature;BME280_humidity;BME280_pressure;Samples;Min_cycle;Max_cycle;Signal;HPM_P1;HPM_P2
2021/03/15 00:00:54;;;;;;;;;16.00;16.00;;;;;6.33;66.28;101010.81;4848575;29;11718;-84
2021/03/15 00:03:23;;;;;;;;;14.50;14.50;;;;;6.38;66.77;101008.00;4865086;29;11761;-83
2021/03/15 00:06:18;;;;;;;;;17.25;17.25;;;;;6.57;65.80;101019.81;4849197;29;11730;-84
2021/03/15 00:09:14;;;;;;;;;16.50;14.50;;;;;6.53;66.11;101012.50;4868011;29;11717;-83
2021/03/15 00:12:09;;;;;;;;;18.50;18.50;;;;;6.55;66.04;101007.50;4869639;29;11710;-83
2021/03/15 00:15:08;;;;;;;;;17.75;17.00;;;;;6.51;66.35;101012.75;4881523;29;12458;-84
2021/03/15 00:18:04;;;;;;;;;14.50;13.50;;;;;6.46;66.53;101010.09;4868392;29;11705;-84
2021/03/15 00:20:33;;;;;;;;;17.00;17.00;;;;;6.54;66.48;101016.88;4867484;29;11793;-83
2021/03/15 00:23:28;;;;;;;;;22.50;21.00;;;;;6.57;65.99;101014.34;4870883;29;11730;-83
2021/03/15 00:26:25;;;;;;;;;16.25;16.25;;;;;6.54;65.96;101009.44;4867848;29;11863;-82
2021/03/15 00:29:21;;;;;;;;;17.75;17.75;;;;;6.57;65.93;100997.03;4859550;29;11836;-83
2021/03/15 00:32:20;;;;;;;;;22.00;22.00;;;;;6.63;66.06;100996.66;4848552;29;11701;-84
2021/03/15 00:35:17;;;;;;;;;20.00;20.00;;;;;6.52;66.62;100997.94;4861385;29;11761;-82
2021/03/15 00:38:13;;;;;;;;;10.00;10.00;;;;;6.56;66.46;100989.91;4858641;29;11699;-83
2021/03/15 00:40:57;;;;;;;;;23.50;19.75;;;;;6.55;66.72;100985.53;4866795;29;11737;-83
2021/03/15 00:43:25;;;;;;;;;22.25;20.25;;;;;6.53;66.51;100985.00;4864252;29;11742;-84
2021/03/15 00:46:23;;;;;;;;;16.00;16.00;;;;;6.50;66.88;100993.84;4879249;29;11709;-83
2021/03/15 00:49:19;;;;;;;;;23.00;23.00;;;;;6.44;67.32;100989.50;4866194;29;11685;-84
2021/03/15 00:52:14;;;;;;;;;20.75;19.75;;;;;6.48;67.26;100993.31;4866364;29;11730;-84
2021/03/15 00:55:10;;;;;;;;;19.50;17.75;;;;;6.45;67.58;100983.75;4867913;29;11705;-84
2021/03/15 00:58:06;;;;;;;;;21.25;21.00;;;;;6.45;67.42;100977.44;4867452;29;12511;-84
2021/03/15 01:01:02;;;;;;;;;20.25;19.25;;;;;6.39;67.62;100983.00;4866325;29;11713;-84
2021/03/15 01:03:37;;;;;;;;;18.75;17.75;;;;;6.48;67.43;100982.31;4848631;29;11749;-84
2021/03/15 01:06:32;;;;;;;;;21.50;21.00;;;;;6.53;67.45;100974.84;4866215;29;11700;-84
2021/03/15 01:09:28;;;;;;;;;23.00;22.00;;;;;6.45;67.63;100970.00;4847897;29;11817;-84
2021/03/15 01:12:24;;;;;;;;;19.75;19.75;;;;;6.52;67.79;100969.63;4860732;29;11737;-85
2021/03/15 01:15:21;;;;;;;;;22.25;22.25;;;;;6.59;67.48;100967.31;4847036;29;11717;-84
2021/03/15 01:18:17;;;;;;;;;23.50;21.75;;;;;6.42;68.26;100959.59;4859525;29;11812;-84
2021/03/15 01:21:16;;;;;;;;;22.50;22.50;;;;;6.39;68.23;100963.75;4847634;29;11850;-84
2021/03/15 01:24:11;;;;;;;;;17.50;17.50;;;;;6.45;67.99;100961.75;4847009;29;11722;-84
2021/03/15 01:27:09;;;;;;;;;23.00;23.00;;;;;6.33;68.34;100956.69;4861957;29;11718;-84
2021/03/15 01:30:16;;;;;;;;;19.50;19.00;;;;;6.39;68.51;100961.00;4848631;29;11748;-83
2021/03/15 01:33:14;;;;;;;;;21.75;20.75;;;;;6.43;68.31;100963.97;4857063;29;11699;-84
2021/03/15 01:36:10;;;;;;;;;22.25;22.25;;;;;6.41;68.65;100961.53;4873190;29;11863;-84
2021/03/15 01:39:05;;;;;;;;;21.75;21.00;;;;;6.46;68.29;100960.66;4861309;29;11812;-85
2021/03/15 01:41:47;;;;;;;;;22.25;22.25;;;;;6.40;68.46;100959.06;4851788;29;11725;-85
2021/03/15 01:44:17;;;;;;;;;21.50;21.50;;;;;6.47;68.34;100969.72;4850760;29;11754;-84
2021/03/15 01:47:12;;;;;;;;;19.00;18.75;;;;;6.45;68.33;100972.75;4870991;29;11769;-83
2021/03/15 01:50:12;;;;;;;;;19.50;18.75;;;;;6.44;68.53;100976.63;4871908;29;11701;-83
2021/03/15 01:53:08;;;;;;;;;19.50;19.50;;;;;6.39;68.45;100968.44;4871392;29;11706;-83
2021/03/15 01:56:05;;;;;;;;;17.25;17.25;;;;;6.39;68.70;100980.25;4870115;29;11815;-84
2021/03/15 01:59:01;;;;;;;;;15.00;15.00;;;;;6.43;68.64;100968.66;4869723;29;11809;-84
2021/03/15 02:01:58;;;;;;;;;12.75;12.75;;;;;6.43;68.81;100960.41;4866296;29;11708;-84
2021/03/15 02:04:27;;;;;;;;;18.25;18.25;;;;;6.45;68.74;100966.44;4852163;29;11757;-84
2021/03/15 02:07:22;;;;;;;;;18.25;17.00;;;;;6.48;68.46;100965.84;4867874;29;11747;-84
2021/03/15 02:10:18;;;;;;;;;21.25;20.50;;;;;6.53;68.36;100963.84;4867396;29;11718;-84
2021/03/15 02:13:13;;;;;;;;;20.25;20.25;;;;;6.46;68.69;100965.31;4865691;29;12620;-84
2021/03/15 02:16:47;;;;;;;;;22.50;18.00;;;;;6.52;68.98;100964.97;4851682;29;11796;-83
2021/03/15 02:19:55;;;;;;;;;27.00;26.75;;;;;6.47;69.04;100964.22;4852363;29;11745;-82
2021/03/15 02:23:02;;;;;;;;;9.75;9.75;;;;;6.37;69.09;100959.69;4865951;29;11734;-83
2021/03/15 02:26:19;;;;;;;;;29.00;27.75;;;;;6.39;69.53;100955.50;4852509;29;11740;-83
2021/03/15 02:29:36;;;;;;;;;20.25;20.25;;;;;6.44;69.25;100967.53;4864252;29;11811;-84
2021/03/15 02:32:58;;;;;;;;;16.25;15.25;;;;;6.44;69.45;100965.63;4850605;29;11732;-84
2021/03/15 02:35:57;;;;;;;;;15.25;15.25;;;;;6.38;69.40;100962.13;4853684;29;11730;-83
2021/03/15 02:38:53;;;;;;;;;22.50;22.50;;;;;6.44;69.64;100953.78;4860255;29;12439;-84
2021/03/15 02:41:52;;;;;;;;;41.50;38.75;;;;;6.40;69.58;100950.84;4881558;29;11759;-84
2021/03/15 02:44:54;;;;;;;;;36.25;36.00;;;;;6.40;69.52;100950.84;4868364;29;11759;-84
2021/03/15 02:47:51;;;;;;;;;48.25;40.00;;;;;6.28;69.73;100953.19;4869376;29;11729;-83
2021/03/15 02:50:49;;;;;;;;;35.50;33.50;;;;;6.20;69.94;100953.84;4868008;29;11748;-84
2021/03/15 02:53:46;;;;;;;;;33.25;31.00;;;;;6.00;70.41;100954.94;4868315;29;11722;-84
2021/03/15 02:56:45;;;;;;;;;28.25;25.50;;;;;5.97;70.55;100953.59;4881209;29;11762;-84
2021/03/15 02:59:43;;;;;;;;;26.25;26.25;;;;;6.09;70.22;100956.75;4880836;29;11837;-83
2021/03/15 03:02:43;;;;;;;;;25.25;25.25;;;;;6.03;70.23;100951.59;4868856;29;11722;-83
2021/03/15 03:05:40;;;;;;;;;25.25;21.50;;;;;6.11;70.06;100956.44;4868104;29;11719;-83
2021/03/15 03:08:38;;;;;;;;;33.75;33.75;;;;;5.90;70.81;100955.84;4852357;29;11796;-84
2021/03/15 03:11:37;;;;;;;;;31.75;31.75;;;;;6.00;70.39;100966.75;4863073;29;11739;-82
2021/03/15 03:14:35;;;;;;;;;29.50;27.00;;;;;5.98;70.75;100957.16;4850001;29;11822;-84
2021/03/15 03:17:36;;;;;;;;;34.75;34.75;;;;;5.81;71.06;100957.59;4862669;29;11731;-84
2021/03/15 03:20:33;;;;;;;;;36.00;34.25;;;;;5.89;70.90;100951.47;4861426;29;11894;-83
2021/03/15 03:23:34;;;;;;;;;38.50;38.25;;;;;5.98;70.91;100954.41;4849697;29;11816;-83
2021/03/15 03:26:31;;;;;;;;;49.50;43.50;;;;;5.96;71.01;100948.41;4861635;29;11919;-83
2021/03/15 03:29:28;;;;;;;;;52.50;44.75;;;;;5.86;71.57;100960.28;4861132;29;11754;-84
2021/03/15 03:32:06;;;;;;;;;51.00;46.25;;;;;5.98;70.98;100951.66;4848554;29;11725;-85
2021/03/15 03:34:34;;;;;;;;;45.00;41.50;;;;;5.90;70.92;100961.31;4861617;29;11729;-84
2021/03/15 03:37:30;;;;;;;;;29.25;29.25;;;;;5.95;70.78;100963.25;4860287;29;11723;-83
2021/03/15 03:40:28;;;;;;;;;29.25;27.00;;;;;5.85;71.14;100962.22;4860182;29;11869;-84
2021/03/15 03:43:25;;;;;;;;;20.50;20.50;;;;;5.81;71.15;100963.91;4867725;29;11860;-84
2021/03/15 03:46:21;;;;;;;;;25.25;24.75;;;;;5.82;71.27;100962.78;4861683;29;11655;-84
2021/03/15 03:48:50;;;;;;;;;24.75;24.75;;;;;5.84;71.12;100971.56;4846367;29;11709;-84
2021/03/15 03:52:00;;;;;;;;;18.50;18.00;;;;;5.79;71.16;100966.13;4842016;29;11758;-85
2021/03/15 03:55:03;;;;;;;;;26.50;25.00;;;;;5.85;71.21;100964.16;4843158;29;11722;-85
2021/03/15 03:58:00;;;;;;;;;20.75;20.75;;;;;5.77;71.39;100956.56;4843888;29;11702;-85
2021/03/15 04:00:58;;;;;;;;;25.75;25.75;;;;;5.59;72.12;100955.38;4851265;29;11701;-83
2021/03/15 04:03:49;;;;;;;;;17.75;17.75;;;;;5.72;71.41;100962.09;4860458;29;11703;-84
2021/03/15 04:06:47;;;;;;;;;29.25;28.00;;;;;5.64;71.79;100960.00;4861924;29;11712;-84
2021/03/15 04:09:46;;;;;;;;;28.00;26.25;;;;;5.52;72.13;100961.22;4862833;29;11800;-83
2021/03/15 04:12:48;;;;;;;;;25.00;25.00;;;;;5.59;72.48;100955.38;4861710;29;11750;-83
2021/03/15 04:15:47;;;;;;;;;22.50;21.50;;;;;5.61;72.48;100952.38;4862099;29;11731;-83
2021/03/15 04:18:50;;;;;;;;;26.50;24.00;;;;;5.62;72.57;100954.00;4863037;29;11708;-83
2021/03/15 04:21:50;;;;;;;;;30.25;29.50;;;;;5.56;72.85;100943.06;4860071;29;11706;-85
2021/03/15 04:24:47;;;;;;;;;57.75;47.50;;;;;5.69;72.64;100941.56;4861035;29;11730;-83
2021/03/15 04:27:44;;;;;;;;;42.25;39.00;;;;;5.73;72.58;100937.09;4860601;29;11735;-84
2021/03/15 04:30:42;;;;;;;;;36.75;36.75;;;;;5.86;71.96;100950.13;4856337;29;11718;-84
2021/03/15 04:33:39;;;;;;;;;45.75;42.00;;;;;5.80;72.60;100951.31;4844388;29;12545;-83
2021/03/15 04:36:34;;;;;;;;;45.25;42.75;;;;;5.94;72.44;100958.88;4845157;29;11749;-83
2021/03/15 04:39:33;;;;;;;;;35.00;35.00;;;;;5.95;73.04;100964.06;4843696;29;11738;-84
2021/03/15 04:42:32;;;;;;;;;39.75;33.25;;;;;6.03;72.63;100957.09;4844400;29;11777;-85
2021/03/15 04:45:22;;;;;;;;;27.00;25.75;;;;;6.04;72.87;100961.47;4854079;29;12425;-85
2021/03/15 04:48:21;;;;;;;;;33.50;31.75;;;;;6.13;72.45;100956.97;4859198;29;11719;-85
2021/03/15 04:51:18;;;;;;;;;33.75;28.75;;;;;6.17;72.53;100955.28;4859821;29;11723;-86
2021/03/15 04:54:14;;;;;;;;;29.50;28.25;;;;;6.26;72.13;100942.50;4841144;29;11865;-86
2021/03/15 04:57:14;;;;;;;;;27.75;26.75;;;;;6.32;72.01;100946.81;4842195;29;11790;-86
2021/03/15 04:59:44;;;;;;;;;36.50;33.50;;;;;6.37;71.86;100948.69;4842742;29;11735;-87
2021/03/15 05:02:19;;;;;;;;;28.75;28.25;;;;;6.42;72.07;100948.59;4857910;29;11730;-84
2021/03/15 05:04:49;;;;;;;;;30.50;26.00;;;;;6.50;71.79;100947.13;4861543;29;11739;-86
2021/03/15 05:07:49;;;;;;;;;32.75;31.75;;;;;6.54;72.06;100954.47;4866916;29;11692;-85
2021/03/15 05:10:46;;;;;;;;;36.75;34.25;;;;;6.62;71.52;100953.81;4832745;29;11727;-86
2021/03/15 05:13:43;;;;;;;;;29.25;28.00;;;;;6.70;71.55;100960.56;4843387;29;11740;-85
2021/03/15 05:16:41;;;;;;;;;36.50;34.50;;;;;6.82;71.27;100952.66;4847222;29;11752;-85
2021/03/15 05:19:39;;;;;;;;;34.25;34.25;;;;;6.89;71.52;100953.09;4876888;29;12442;-85
2021/03/15 05:22:07;;;;;;;;;28.25;27.25;;;;;6.93;71.59;100950.59;4880692;29;11710;-83
2021/03/15 05:25:06;;;;;;;;;28.25;28.25;;;;;7.07;70.76;100956.13;4845880;29;11746;-86
2021/03/15 05:28:06;;;;;;;;;33.00;31.75;;;;;7.30;70.50;100959.88;4844645;29;11724;-85
2021/03/15 05:31:03;;;;;;;;;29.25;29.00;;;;;7.30;70.60;100957.13;4850190;29;11709;-86
2021/03/15 05:34:00;;;;;;;;;22.75;22.00;;;;;7.38;70.50;100959.16;4865227;29;11727;-85
2021/03/15 05:36:58;;;;;;;;;27.25;26.75;;;;;7.53;69.95;100953.38;4865332;29;11790;-85
2021/03/15 05:39:54;;;;;;;;;30.00;30.00;;;;;7.60;69.70;100962.06;4833531;29;11791;-85
2021/03/15 05:43:05;;;;;;;;;27.75;27.75;;;;;7.63;69.51;100966.13;4846363;29;11742;-85
2021/03/15 05:46:10;;;;;;;;;37.50;33.25;;;;;7.72;69.38;100956.03;4821033;29;11760;-83
2021/03/15 05:49:34;;;;;;;;;26.00;25.75;;;;;7.88;69.05;100959.31;4845865;29;11775;-81
2021/03/15 05:52:48;;;;;;;;;27.75;27.75;;;;;8.09;68.92;100961.34;4848551;29;11727;-82
2021/03/15 05:56:08;;;;;;;;;25.25;24.00;;;;;8.10;69.39;100956.63;4853918;29;11715;-74
2021/03/15 05:59:19;;;;;;;;;19.75;19.75;;;;;8.20;69.14;100963.88;4880577;29;11700;-75
2021/03/15 06:02:37;;;;;;;;;19.25;19.25;;;;;8.33;68.97;100957.53;4881571;29;11731;-75
2021/03/15 06:05:37;;;;;;;;;27.50;27.50;;;;;8.36;69.39;100965.22;4881688;29;11690;-75
2021/03/15 06:08:43;;;;;;;;;20.00;20.00;;;;;8.53;68.86;100968.13;4881714;29;11806;-76
2021/03/15 06:11:44;;;;;;;;;26.50;26.50;;;;;8.60;67.83;100967.72;4882216;29;11690;-76
2021/03/15 06:14:45;;;;;;;;;31.00;31.00;;;;;8.63;67.47;100973.41;4881471;29;11746;-75
2021/03/15 06:17:17;;;;;;;;;38.00;35.50;;;;;8.84;66.10;100976.50;4881688;29;11722;-74
2021/03/15 06:19:47;;;;;;;;;47.25;41.75;;;;;8.97;64.31;100977.59;4881856;29;11792;-75
2021/03/15 06:22:43;;;;;;;;;37.25;36.25;;;;;9.02;64.39;100974.69;4883090;29;11753;-76
2021/03/15 06:25:39;;;;;;;;;27.00;26.00;;;;;8.78;65.72;100972.25;4899336;29;11724;-74
2021/03/15 06:28:35;;;;;;;;;33.50;32.25;;;;;8.80;64.90;100978.25;4899387;29;11746;-75
2021/03/15 06:31:34;;;;;;;;;34.75;31.50;;;;;8.95;65.42;100971.56;4899079;29;11716;-75
2021/03/15 06:34:19;;;;;;;;;45.50;41.25;;;;;9.04;63.08;100971.63;4900725;29;11732;-75
2021/03/15 06:37:16;;;;;;;;;60.00;48.25;;;;;9.23;61.72;100983.28;4886214;29;11916;-75
2021/03/15 06:40:14;;;;;;;;;68.75;56.75;;;;;9.34;58.62;100975.56;4899004;29;11795;-75
2021/03/15 06:43:15;;;;;;;;;68.25;56.00;;;;;9.45;57.06;100969.47;4899527;29;11715;-75
2021/03/15 06:46:15;;;;;;;;;57.50;49.50;;;;;9.57;56.51;100981.84;4904215;29;11727;-74
2021/03/15 06:49:10;;;;;;;;;62.50;51.75;;;;;9.74;56.91;100980.00;4899579;29;12614;-74
2021/03/15 06:52:08;;;;;;;;;62.00;50.50;;;;;9.43;57.60;100973.66;4899381;29;11816;-75
2021/03/15 06:55:04;;;;;;;;;58.00;49.25;;;;;9.84;57.20;100980.84;4899463;29;11752;-75
2021/03/15 06:58:02;;;;;;;;;64.75;54.75;;;;;10.02;56.25;100982.53;4885978;29;11733;-76
2021/03/15 07:01:07;;;;;;;;;74.50;55.75;;;;;10.19;55.68;100982.59;4898792;29;11739;-75
2021/03/15 07:03:36;;;;;;;;;61.75;53.50;;;;;10.25;54.96;100978.56;4900425;29;11880;-76
2021/03/15 07:06:19;;;;;;;;;65.00;52.50;;;;;10.37;55.01;100975.19;4899579;29;11763;-75
2021/03/15 07:09:16;;;;;;;;;48.00;41.50;;;;;10.49;54.65;100982.84;4898964;29;11812;-74
2021/03/15 07:12:18;;;;;;;;;67.25;52.75;;;;;10.65;54.28;100984.00;4898320;29;11748;-76
2021/03/15 07:15:16;;;;;;;;;74.25;58.50;;;;;10.57;53.30;100974.56;4898602;29;11715;-76
2021/03/15 07:18:14;;;;;;;;;74.00;58.75;;;;;10.81;51.49;100978.78;4899063;29;11816;-79
2021/03/15 07:21:10;;;;;;;;;71.00;58.00;;;;;10.95;50.98;100978.63;4885594;29;11749;-77
2021/03/15 07:24:11;;;;;;;;;75.00;58.50;;;;;10.92;49.32;100973.78;4886160;29;11866;-77
2021/03/15 07:27:07;;;;;;;;;66.00;52.75;;;;;11.04;49.83;100982.22;4894311;29;11915;-74
2021/03/15 07:30:35;;;;;;;;;59.00;49.25;;;;;11.16;49.71;100985.16;4910317;29;12554;-75
2021/03/15 07:33:17;;;;;;;;;51.00;44.75;;;;;11.25;51.00;100980.41;4906478;29;11725;-75
2021/03/15 07:35:44;;;;;;;;;51.75;44.50;;;;;11.09;50.69;100977.34;4899689;29;12522;-77
2021/03/15 07:38:11;;;;;;;;;46.75;42.00;;;;;11.16;49.45;100985.16;4900589;29;11776;-76
2021/03/15 07:40:42;;;;;;;;;46.50;40.50;;;;;11.01;50.24;100978.16;4900081;29;11657;-76
2021/03/15 07:43:14;;;;;;;;;46.75;42.50;;;;;11.03;51.03;100980.59;4882771;29;11653;-75
2021/03/15 07:45:48;;;;;;;;;44.25;39.50;;;;;10.75;51.82;100975.41;4899287;29;11720;-74
2021/03/15 07:48:21;;;;;;;;;43.75;40.25;;;;;10.91;52.93;100972.16;4898908;29;11674;-75
2021/03/15 07:51:00;;;;;;;;;38.50;37.50;;;;;10.84;52.96;100967.09;4899104;29;11683;-75
2021/03/15 07:53:41;;;;;;;;;49.75;41.00;;;;;11.08;53.04;100967.41;4899313;29;12546;-75
2021/03/15 07:56:18;;;;;;;;;48.00;40.00;;;;;11.18;53.78;100968.19;4882522;29;11662;-75
2021/03/15 07:58:46;;;;;;;;;45.50;42.00;;;;;11.20;53.63;100963.16;4899418;29;11666;-73
2021/03/15 08:01:14;;;;;;;;;40.25;38.25;;;;;11.41;53.31;100967.66;4884781;29;11738;-73
2021/03/15 08:04:09;;;;;;;;;43.75;38.75;;;;;11.58;52.73;100963.25;4867346;29;11664;-75
2021/03/15 08:06:38;;;;;;;;;45.50;41.00;;;;;11.86;52.17;100956.13;4830181;29;11713;-74
2021/03/15 08:09:06;;;;;;;;;41.00;38.50;;;;;12.02;52.05;100950.03;4862099;29;11722;-75
2021/03/15 08:11:54;;;;;;;;;43.50;39.00;;;;;12.27;52.89;100954.63;4863776;29;11641;-74
2021/03/15 08:14:56;;;;;;;;;43.25;37.75;;;;;12.39;51.12;100948.34;4866125;29;11681;-74
2021/03/15 08:17:32;;;;;;;;;32.75;32.00;;;;;12.72;50.22;100940.88;4877218;29;11777;-75
2021/03/15 08:20:06;;;;;;;;;40.50;37.00;;;;;13.00;49.54;100943.09;4863352;29;11563;-75
2021/03/15 08:22:48;;;;;;;;;45.50;40.50;;;;;13.14;49.30;100937.25;4880264;29;11679;-74
2021/03/15 08:25:46;;;;;;;;;34.00;33.25;;;;;13.45;47.92;100926.50;4849108;29;11564;-75
2021/03/15 08:28:43;;;;;;;;;38.25;36.50;;;;;13.55;46.05;100923.25;4860498;29;11171;-74
2021/03/15 08:31:46;;;;;;;;;38.00;35.25;;;;;13.56;45.40;100921.28;4848192;29;12068;-74
2021/03/15 08:34:42;;;;;;;;;38.75;36.00;;;;;13.88;45.80;100925.16;4848117;29;11262;-74
2021/03/15 08:37:12;;;;;;;;;29.75;27.75;;;;;13.97;43.56;100928.63;4861288;29;11234;-73
2021/03/15 08:39:40;;;;;;;;;37.50;36.00;;;;;13.95;42.89;100925.34;4861050;29;10783;-73
2021/03/15 08:42:36;;;;;;;;;33.00;32.75;;;;;14.20;43.87;100917.84;4853886;29;10700;-73
2021/03/15 08:45:36;;;;;;;;;39.25;34.75;;;;;14.27;42.15;100911.69;4878110;29;11503;-73
2021/03/15 08:48:15;;;;;;;;;33.75;31.75;;;;;14.40;43.53;100907.69;4879141;29;10534;-73
2021/03/15 08:50:50;;;;;;;;;32.00;31.50;;;;;14.55;42.25;100904.19;4863411;29;10211;-74
2021/03/15 08:53:51;;;;;;;;;30.00;30.00;;;;;14.77;39.09;100908.44;4878398;29;10594;-74
2021/03/15 08:56:48;;;;;;;;;29.50;29.50;;;;;15.02;39.83;100907.16;4876984;29;10477;-71
2021/03/15 08:59:29;;;;;;;;;17.00;17.00;;;;;15.19;38.24;100908.81;4879237;29;11094;-74
2021/03/15 09:02:01;;;;;;;;;30.00;29.25;;;;;15.33;36.49;100911.16;4862777;29;10022;-75
2021/03/15 09:04:34;;;;;;;;;27.50;24.75;;;;;15.68;35.06;100911.31;4879520;29;10090;-73
2021/03/15 09:07:04;;;;;;;;;24.75;24.75;;;;;15.74;34.73;100904.28;4878736;29;10091;-74
2021/03/15 09:09:33;;;;;;;;;23.75;23.25;;;;;15.94;34.51;100901.56;4878869;29;9960;-73
2021/03/15 09:12:03;;;;;;;;;16.00;16.00;;;;;15.94;34.00;100896.78;4879223;29;9764;-73
2021/03/15 09:14:36;;;;;;;;;24.67;23.00;;;;;16.15;33.83;100896.50;4878902;29;9390;-73
2021/03/15 09:17:09;;;;;;;;;15.33;15.33;;;;;16.21;33.52;100894.22;4879437;29;9523;-74
2021/03/15 09:19:43;;;;;;;;;19.67;19.67;;;;;16.31;33.49;100900.03;4881712;29;9444;-74
2021/03/15 09:22:38;;;;;;;;;23.67;23.67;;;;;16.37;33.24;100897.78;4880729;29;10078;-74
2021/03/15 09:25:17;;;;;;;;;19.33;19.00;;;;;16.39;34.22;100887.84;4879700;29;10134;-74
2021/03/15 09:27:55;;;;;;;;;25.67;25.67;;;;;16.47;34.36;100890.81;4879014;29;9456;-73
2021/03/15 09:30:35;;;;;;;;;24.67;24.67;;;;;16.64;34.28;100882.03;4870132;29;9465;-74
2021/03/15 09:33:30;;;;;;;;;20.00;20.00;;;;;16.75;37.09;100871.88;4859877;29;9515;-74
2021/03/15 09:35:58;;;;;;;;;21.67;21.67;;;;;16.78;35.29;100871.16;4870162;29;9303;-75
2021/03/15 09:39:05;;;;;;;;;17.67;17.67;;;;;17.08;34.12;100871.31;4859828;29;9356;-73
2021/03/15 09:42:01;;;;;;;;;20.00;20.00;;;;;17.06;34.35;100864.50;4866372;29;8974;-73
2021/03/15 09:44:57;;;;;;;;;19.00;18.67;;;;;17.16;35.04;100861.09;4879172;29;9136;-74
2021/03/15 09:47:54;;;;;;;;;20.33;20.33;;;;;17.44;33.25;100861.59;4870499;29;9221;-74
2021/03/15 09:50:52;;;;;;;;;18.75;18.75;;;;;17.58;31.20;100854.63;4885218;29;9046;-74
2021/03/15 09:53:21;;;;;;;;;19.50;19.50;;;;;17.51;29.76;100852.53;4879905;29;8889;-75
2021/03/15 09:55:49;;;;;;;;;19.25;19.25;;;;;17.77;31.25;100854.56;4878759;29;8943;-75
2021/03/15 09:58:46;;;;;;;;;16.75;16.75;;;;;17.75;29.95;100842.94;4866220;29;8868;-73
2021/03/15 10:01:46;;;;;;;;;15.50;15.50;;;;;17.78;32.29;100845.78;4861466;29;8929;-74
2021/03/15 10:04:18;;;;;;;;;16.50;16.50;;;;;18.05;31.24;100841.00;4848513;29;8890;-77
2021/03/15 10:06:47;;;;;;;;;21.00;19.50;;;;;18.29;32.25;100836.13;4865359;29;8896;-74
2021/03/15 10:09:17;;;;;;;;;17.50;15.00;;;;;18.40;29.98;100834.25;4882373;29;8891;-75
2021/03/15 10:11:53;;;;;;;;;23.50;22.50;;;;;18.67;30.56;100834.22;4881999;29;8992;-74
2021/03/15 10:14:24;;;;;;;;;28.00;27.50;;;;;18.81;30.18;100840.00;4881791;29;8879;-74
2021/03/15 10:16:55;;;;;;;;;24.75;24.75;;;;;18.71;30.32;100829.47;4881792;29;8864;-74
2021/03/15 10:19:29;;;;;;;;;23.00;23.00;;;;;18.26;31.79;100828.50;4879001;29;8930;-75
2021/03/15 10:22:10;;;;;;;;;21.75;21.75;;;;;17.13;32.33;100819.94;4875294;29;9050;-73
2021/03/15 10:25:06;;;;;;;;;20.33;20.33;;;;;16.63;33.13;100819.75;4883194;29;8875;-75
2021/03/15 10:28:05;;;;;;;;;23.33;23.33;;;;;17.19;32.40;100816.47;4869537;29;9054;-74
2021/03/15 10:31:07;;;;;;;;;27.00;25.33;;;;;17.20;32.13;100804.09;4881180;29;9213;-74
2021/03/15 10:34:08;;;;;;;;;22.33;22.00;;;;;17.67;31.09;100811.25;4880738;29;8964;-75
2021/03/15 10:37:05;;;;;;;;;22.67;22.67;;;;;16.90;31.93;100801.16;4880284;29;9207;-73
2021/03/15 10:40:01;;;;;;;;;21.33;21.33;;;;;16.83;32.00;100801.03;4879652;29;9143;-74
2021/03/15 10:42:59;;;;;;;;;16.00;16.00;;;;;17.31;31.08;100800.66;4880399;29;9115;-75
2021/03/15 10:45:55;;;;;;;;;14.50;14.50;;;;;17.68;30.32;100803.66;4867815;29;8975;-74
2021/03/15 10:48:51;;;;;;;;;18.33;18.33;;;;;17.97;31.64;100800.13;4880226;29;8946;-73
2021/03/15 10:51:50;;;;;;;;;19.25;19.25;;;;;18.09;29.83;100784.28;4880416;29;9059;-74
2021/03/15 10:54:45;;;;;;;;;22.33;22.00;;;;;18.46;30.10;100782.34;4880132;29;8880;-74
2021/03/15 10:57:22;;;;;;;;;19.00;19.00;;;;;18.74;29.55;100781.09;4880976;29;8967;-76
2021/03/15 11:00:22;;;;;;;;;24.50;23.50;;;;;18.58;29.78;100779.28;4880702;29;8967;-74
2021/03/15 11:02:59;;;;;;;;;14.25;14.25;;;;;18.62;30.55;100771.72;4881040;29;8872;-74
2021/03/15 11:06:17;;;;;;;;;24.75;22.00;;;;;18.62;30.75;100766.13;4867294;29;8986;-75
2021/03/15 11:09:00;;;;;;;;;26.50;24.00;;;;;18.88;30.40;100756.03;4863534;29;8864;-74
2021/03/15 11:11:30;;;;;;;;;23.75;22.75;;;;;18.69;30.83;100767.41;4879475;29;8880;-75
2021/03/15 11:14:06;;;;;;;;;23.75;23.50;;;;;19.12;29.07;100749.81;4880221;29;8873;-76
2021/03/15 11:16:59;;;;;;;;;18.75;18.75;;;;;18.33;29.37;100742.63;4879644;29;8871;-76
2021/03/15 11:19:55;;;;;;;;;22.00;22.00;;;;;18.21;28.25;100740.06;4861469;29;8886;-77
2021/03/15 11:22:52;;;;;;;;;26.50;24.00;;;;;18.32;29.18;100738.19;4860777;29;8882;-80
2021/03/15 11:25:48;;;;;;;;;24.75;23.25;;;;;18.97;28.69;100748.09;4863098;29;8929;-74
2021/03/15 11:28:15;;;;;;;;;25.75;25.75;;;;;19.24;28.51;100736.69;4857639;29;9686;-77
2021/03/15 11:31:19;;;;;;;;;22.50;22.50;;;;;19.76;30.30;100723.44;4861899;29;8902;-75
2021/03/15 11:34:25;;;;;;;;;26.00;24.50;;;;;20.16;27.36;100717.59;4860922;29;8960;-75
2021/03/15 11:37:29;;;;;;;;;23.50;23.50;;;;;20.20;28.02;100710.00;4860765;29;8878;-75
2021/03/15 11:40:32;;;;;;;;;24.75;23.75;;;;;19.97;27.15;100709.53;4871381;29;8906;-77
2021/03/15 11:43:28;;;;;;;;;24.25;23.50;;;;;20.24;27.30;100704.41;4861592;29;8879;-77
2021/03/15 11:46:23;;;;;;;;;25.75;25.75;;;;;20.37;27.13;100702.03;4860925;29;8850;-76
2021/03/15 11:49:19;;;;;;;;;25.00;24.50;;;;;18.85;28.60;100695.13;4864090;29;8866;-75
2021/03/15 11:52:29;;;;;;;;;20.25;19.75;;;;;19.56;30.00;100690.06;4860583;29;9005;-77
2021/03/15 11:55:24;;;;;;;;;25.25;24.75;;;;;20.06;28.66;100692.31;4861047;29;8870;-75
2021/03/15 11:58:20;;;;;;;;;23.25;22.25;;;;;19.76;27.78;100689.78;4861340;29;8883;-76
2021/03/15 12:00:47;;;;;;;;;18.25;18.25;;;;;20.44;28.31;100674.78;4861775;29;8910;-77
2021/03/15 12:03:14;;;;;;;;;17.50;17.50;;;;;20.46;27.86;100677.19;4861546;29;8885;-74
2021/03/15 12:05:43;;;;;;;;;21.75;20.75;;;;;20.61;27.12;100673.22;4861255;29;8958;-76
2021/03/15 12:08:11;;;;;;;;;21.25;16.25;;;;;21.12;27.65;100674.81;4861491;29;8945;-77
2021/03/15 12:10:50;;;;;;;;;14.25;14.25;;;;;21.31;27.42;100659.56;4861465;29;8874;-77
2021/03/15 12:13:17;;;;;;;;;15.50;14.75;;;;;21.47;26.50;100668.38;4861758;29;8909;-79
2021/03/15 12:15:57;;;;;;;;;15.00;15.00;;;;;21.60;25.49;100661.09;4861172;29;8886;-77
2021/03/15 12:18:24;;;;;;;;;14.75;14.75;;;;;21.54;26.83;100661.91;4849286;29;8998;-77
2021/03/15 12:20:51;;;;;;;;;12.75;12.75;;;;;21.69;26.81;100659.84;4877588;29;8896;-78
2021/03/15 12:23:17;;;;;;;;;15.50;15.50;;;;;21.11;26.97;100659.16;4870173;29;8903;-77
2021/03/15 12:26:13;;;;;;;;;13.75;13.75;;;;;21.00;27.51;100655.56;4881293;29;8931;-77
2021/03/15 12:29:09;;;;;;;;;15.75;15.75;;;;;21.34;27.12;100651.13;4881561;29;8872;-78
2021/03/15 12:32:05;;;;;;;;;14.50;14.50;;;;;21.55;27.08;100646.66;4870534;29;9018;-77
2021/03/15 12:34:34;;;;;;;;;14.50;14.25;;;;;21.69;25.73;100642.97;4873712;29;8894;-79
2021/03/15 12:37:29;;;;;;;;;15.00;14.00;;;;;21.36;26.98;100645.09;4870587;29;8872;-76
2021/03/15 12:40:25;;;;;;;;;16.00;15.50;;;;;21.23;27.78;100636.22;4881548;29;8895;-76
2021/03/15 12:43:21;;;;;;;;;14.25;14.25;;;;;21.71;26.76;100630.09;4877704;29;8914;-76
2021/03/15 12:46:19;;;;;;;;;8.00;8.00;;;;;21.60;25.74;100637.78;4878597;29;8991;-78
2021/03/15 12:49:18;;;;;;;;;8.50;8.50;;;;;22.00;25.34;100613.84;4865849;29;8879;-77
2021/03/15 12:52:13;;;;;;;;;10.00;10.00;;;;;22.02;25.76;100630.38;4861228;29;8990;-76
2021/03/15 12:55:13;;;;;;;;;6.75;6.75;;;;;22.11;25.11;100631.53;4848285;29;8921;-74
2021/03/15 12:58:10;;;;;;;;;6.50;6.50;;;;;21.95;25.18;100630.41;4859881;29;8886;-76
2021/03/15 13:00:37;;;;;;;;;8.75;8.75;;;;;21.30;26.48;100625.00;4844779;29;8901;-77
2021/03/15 13:03:33;;;;;;;;;9.75;9.75;;;;;21.72;26.32;100626.09;4862858;29;8904;-76
2021/03/15 13:06:29;;;;;;;;;11.00;10.25;;;;;22.14;26.79;100615.81;4881659;29;8871;-75